createdAt,value
2018-02-06T00:00:05.675Z,94149.84
2018-02-06T00:02:33.230Z,94153.11
2018-02-06T00:05:00.846Z,94159.26
2018-02-06T00:07:28.394Z,94156.79
2018-02-06T00:09:55.938Z,94154.84
2018-02-06T00:12:23.546Z,94146.32
2018-02-06T00:14:51.130Z,94142.98
2018-02-06T00:17:18.694Z,94145.47
2018-02-06T00:19:46.274Z,94149.16
2018-02-06T00:22:15.033Z,94147.40
2018-02-06T00:24:42.616Z,94149.06
2018-02-06T00:27:10.357Z,94142.94
2018-02-06T00:29:37.926Z,94154.89
2018-02-06T00:32:05.479Z,94144.54
2018-02-06T00:34:33.075Z,94153.09
2018-02-06T00:37:00.640Z,94146.95
2018-02-06T00:39:28.203Z,94147.06
2018-02-06T00:41:55.788Z,94147.86
2018-02-06T00:44:24.347Z,94145.66
2018-02-06T00:46:51.898Z,94134.49
2018-02-06T00:49:19.558Z,94140.19
2018-02-06T00:51:47.104Z,94137.72
2018-02-06T00:54:14.646Z,94138.88
2018-02-06T00:56:42.248Z,94131.87
2018-02-06T00:59:09.783Z,94125.33
2018-02-06T01:01:37.326Z,94126.01
2018-02-06T01:04:05.027Z,94120.12
2018-02-06T01:06:32.596Z,94117.20
2018-02-06T01:09:00.142Z,94111.90
2018-02-06T01:11:27.745Z,94108.77
2018-02-06T01:13:55.296Z,94106.41
2018-02-06T01:16:22.845Z,94103.40
2018-02-06T01:18:50.536Z,94108.59
2018-02-06T01:21:18.123Z,94092.09
2018-02-06T01:23:45.673Z,94098.12
2018-02-06T01:26:13.542Z,94085.70
2018-02-06T01:28:41.101Z,94080.31
2018-02-06T01:31:08.653Z,94071.18
2018-02-06T01:33:36.236Z,94069.53
2018-02-06T01:36:03.791Z,94063.69
2018-02-06T01:38:31.353Z,94057.46
2018-02-06T01:40:58.940Z,94060.32
2018-02-06T01:43:26.507Z,94051.27
2018-02-06T01:45:54.064Z,94053.50
2018-02-06T01:48:21.806Z,94054.89
2018-02-06T01:50:49.321Z,94053.89
2018-02-06T01:53:16.872Z,94054.43
2018-02-06T01:55:44.430Z,94049.41
2018-02-06T01:58:11.974Z,94053.09
2018-02-06T02:00:39.625Z,94039.95
2018-02-06T02:03:07.234Z,94048.24
2018-02-06T02:05:34.776Z,94056.47
2018-02-06T02:08:02.354Z,94049.23
2018-02-06T02:10:29.928Z,94047.48
2018-02-06T02:12:57.476Z,94052.79
2018-02-06T02:15:25.063Z,94049.23
2018-02-06T02:17:52.630Z,94047.17
2018-02-06T02:20:20.186Z,94048.98
2018-02-06T02:22:47.880Z,94042.29
2018-02-06T02:25:15.435Z,94049.64
2018-02-06T02:27:42.997Z,94045.81
2018-02-06T02:30:10.737Z,94052.32
2018-02-06T02:32:38.291Z,94050.99
2018-02-06T02:35:05.842Z,94057.53
2018-02-06T02:37:33.573Z,94052.00
2018-02-06T02:40:01.120Z,94050.17
2018-02-06T04:40:32.012Z,94110.19
2018-02-06T04:42:59.711Z,94102.48
2018-02-06T04:45:27.301Z,94107.09
2018-02-06T04:47:54.889Z,94104.11
2018-02-06T04:50:22.633Z,94104.44
2018-02-06T04:52:50.191Z,94100.78
2018-02-06T04:55:17.749Z,94110.08
2018-02-06T04:57:45.385Z,94107.05
2018-02-06T05:00:12.935Z,94107.31
2018-02-06T05:02:40.522Z,94109.84
2018-02-06T05:05:08.130Z,94114.61
2018-02-06T05:07:35.691Z,94112.47
2018-02-06T05:10:03.249Z,94110.23
2018-02-06T05:12:31.038Z,94110.22
2018-02-06T05:14:58.642Z,94114.02
2018-02-06T05:17:26.174Z,94113.77
2018-02-06T05:19:53.763Z,94113.86
2018-02-06T05:22:21.322Z,94116.34
2018-02-06T05:24:48.874Z,94112.03
2018-02-06T05:27:16.450Z,94112.30
2018-02-06T05:29:44.007Z,94116.47
2018-02-06T05:32:11.584Z,94115.23
2018-02-06T05:34:39.179Z,94120.46
2018-02-06T05:37:06.735Z,94125.55
2018-02-06T05:39:34.302Z,94129.70
2018-02-06T05:42:01.987Z,94129.10
2018-02-06T05:44:29.588Z,94131.27
2018-02-06T05:46:57.130Z,94137.56
2018-02-06T05:49:24.821Z,94137.09
2018-02-06T05:51:52.373Z,94137.31
2018-02-06T05:54:19.933Z,94146.28
2018-02-06T05:56:47.481Z,94133.13
2018-02-06T05:59:15.037Z,94140.52
2018-02-06T06:01:42.769Z,94140.55
2018-02-06T06:04:10.313Z,94142.30
2018-02-06T06:06:37.888Z,94148.96
2018-02-06T06:09:05.501Z,94150.24
2018-02-06T06:11:33.052Z,94158.02
2018-02-06T06:14:00.602Z,94156.95
2018-02-06T06:16:28.578Z,94153.89
2018-02-06T06:18:56.125Z,94154.69
2018-02-06T06:21:23.699Z,94153.86
2018-02-06T06:23:51.434Z,94155.63
2018-02-06T06:26:19.018Z,94154.55
2018-02-06T06:28:46.576Z,94157.00
2018-02-06T06:31:14.424Z,94159.04
2018-02-06T06:33:42.009Z,94162.02
2018-02-06T06:36:09.558Z,94167.94
2018-02-06T06:38:37.205Z,94168.19
2018-02-06T06:41:04.769Z,94164.88
2018-02-06T06:43:32.318Z,94161.27
2018-02-06T06:46:00.201Z,94156.05
2018-02-06T06:48:27.760Z,94162.74
2018-02-06T06:50:55.319Z,94153.78
2018-02-06T06:53:23.183Z,94146.87
2018-02-06T06:55:50.734Z,94148.08
2018-02-06T06:58:18.277Z,94143.41
2018-02-06T07:00:45.851Z,94142.16
2018-02-06T07:03:13.397Z,94147.13
2018-02-06T07:05:40.941Z,94152.14
2018-02-06T07:08:08.675Z,94156.28
2018-02-06T07:10:36.226Z,94155.00
2018-02-06T07:13:03.780Z,94154.60
2018-02-06T07:15:31.534Z,94154.70
2018-02-06T07:17:59.085Z,94153.92
2018-02-06T07:20:26.657Z,94157.63
2018-02-06T07:22:54.346Z,94163.00
2018-02-06T07:25:21.905Z,94162.56
2018-02-06T07:27:49.454Z,94162.09
2018-02-06T07:30:17.204Z,94164.20
2018-02-06T07:32:44.767Z,94165.80
2018-02-06T07:35:12.327Z,94173.23
2018-02-06T07:37:40.199Z,94181.94
2018-02-06T07:40:07.759Z,94181.48
2018-02-06T07:42:35.337Z,94179.85
2018-02-06T07:45:03.131Z,94171.25
2018-02-06T07:47:30.715Z,94168.80
2018-02-06T07:49:58.281Z,94166.27
2018-02-06T07:52:25.893Z,94164.21
2018-02-06T07:54:53.480Z,94166.65
2018-02-06T07:57:21.050Z,94161.63
2018-02-06T07:59:48.620Z,94159.06
2018-02-06T08:02:16.187Z,94158.21
2018-02-06T08:04:43.743Z,94156.91
2018-02-06T08:07:11.342Z,94155.64
2018-02-06T08:09:38.898Z,94162.91
2018-02-06T08:12:06.459Z,94153.34
2018-02-06T08:14:34.042Z,94158.23
2018-02-06T08:17:01.596Z,94168.67
2018-02-06T08:19:29.164Z,94171.51
2018-02-06T08:21:56.764Z,94176.02
2018-02-06T08:24:24.320Z,94176.34
2018-02-06T08:26:51.894Z,94174.64
2018-02-06T08:29:19.495Z,94179.65
2018-02-06T08:31:47.672Z,94180.98
2018-02-06T08:34:15.223Z,94181.70
2018-02-06T08:36:43.032Z,94179.14
2018-02-06T08:39:10.555Z,94174.88
2018-02-06T08:41:38.097Z,94174.38
2018-02-06T08:44:06.451Z,94170.25
2018-02-06T08:46:34.011Z,94170.99
2018-02-06T08:49:01.569Z,94173.53
2018-02-06T08:51:30.648Z,94177.56
2018-02-06T08:53:58.220Z,94175.44
2018-02-06T08:56:25.765Z,94174.16
2018-02-06T08:58:53.338Z,94180.41
2018-02-06T09:01:20.883Z,94177.97
2018-02-06T09:03:48.421Z,94189.58
2018-02-06T09:06:16.187Z,94190.79
2018-02-06T09:08:43.756Z,94186.11
2018-02-06T09:11:11.332Z,94182.70
2018-02-06T09:13:39.031Z,94181.17
2018-02-06T09:16:06.588Z,94182.62
2018-02-06T09:18:34.166Z,94185.00
2018-02-06T09:21:02.738Z,94178.36
2018-02-06T09:23:30.286Z,94174.52
2018-02-06T09:25:57.855Z,94172.34
2018-02-06T09:28:25.446Z,94165.28
2018-02-06T09:30:53.012Z,94162.37
2018-02-06T09:33:20.592Z,94170.28
2018-02-06T09:35:48.187Z,94173.59
2018-02-06T09:38:15.738Z,94173.34
2018-02-06T09:40:43.291Z,94169.61
2018-02-06T09:43:10.874Z,94173.27
2018-02-06T09:45:38.431Z,94167.92
2018-02-06T09:48:05.987Z,94168.22
2018-02-06T09:50:33.690Z,94163.13
2018-02-06T09:53:01.231Z,94161.09
2018-02-06T09:55:28.781Z,94167.92
2018-02-06T09:57:58.152Z,94167.68
2018-02-06T10:00:25.707Z,94164.81
2018-02-06T10:02:54.165Z,94163.44
2018-02-06T10:05:22.221Z,94156.39
2018-02-06T10:07:49.768Z,94154.16
2018-02-06T10:10:17.347Z,94152.91
2018-02-06T10:12:45.047Z,94152.98
2018-02-06T10:15:12.599Z,94142.43
2018-02-06T10:17:40.155Z,94138.96
2018-02-06T10:20:07.749Z,94139.73
2018-02-06T10:22:35.302Z,94137.45
2018-02-06T10:25:02.847Z,94131.47
2018-02-06T10:27:30.425Z,94135.23
2018-02-06T10:29:57.969Z,94129.67
2018-02-06T10:32:25.508Z,94129.11
2018-02-06T10:34:53.084Z,94126.80
2018-02-06T10:37:20.637Z,94116.97
2018-02-06T10:39:48.699Z,94115.08
2018-02-06T10:42:16.472Z,94117.20
2018-02-06T10:44:44.054Z,94108.26
2018-02-06T10:47:11.608Z,94102.86
2018-02-06T10:49:39.177Z,94097.80
2018-02-06T10:52:06.723Z,94100.02
2018-02-06T10:54:34.289Z,94100.05
2018-02-06T10:57:02.179Z,94098.75
2018-02-06T10:59:29.727Z,94093.73
2018-02-06T11:01:57.416Z,94090.14
2018-02-06T11:04:24.981Z,94092.39
2018-02-06T11:06:52.531Z,94088.19
2018-02-06T11:09:20.120Z,94083.23
2018-02-06T11:11:47.668Z,94082.57
2018-02-06T11:14:15.222Z,94075.83
2018-02-06T11:16:42.816Z,94077.25
2018-02-06T11:19:10.370Z,94080.82
2018-02-06T11:21:37.933Z,94078.45
2018-02-06T11:24:05.660Z,94068.75
2018-02-06T11:26:33.226Z,94065.05
2018-02-06T11:29:00.783Z,94068.25
2018-02-06T11:31:28.364Z,94055.03
2018-02-06T11:33:55.908Z,94066.48
2018-02-06T11:36:23.457Z,94067.98
2018-02-06T11:38:51.144Z,94068.12
2018-02-06T11:41:18.698Z,94057.39
2018-02-06T11:43:46.245Z,94060.38
2018-02-06T11:46:13.995Z,94052.48
2018-02-06T11:48:41.574Z,94050.98
2018-02-06T11:51:09.131Z,94055.39
2018-02-06T11:53:36.733Z,94052.48
2018-02-06T11:56:04.278Z,94049.10
2018-02-06T11:58:31.826Z,94062.81
2018-02-06T12:00:59.555Z,94054.11
2018-02-06T12:03:27.105Z,94040.13
2018-02-06T12:05:54.647Z,94054.05
2018-02-06T12:08:22.221Z,94052.16
2018-02-06T12:10:52.783Z,94047.39
2018-02-06T12:13:20.335Z,94046.54
2018-02-06T12:15:48.017Z,94047.81
2018-02-06T12:18:15.583Z,94039.63
2018-02-06T12:20:43.148Z,94041.13
2018-02-06T12:23:10.765Z,94043.80
2018-02-06T12:25:38.310Z,94036.39
2018-02-06T12:28:05.866Z,94036.03
2018-02-06T12:30:33.609Z,94033.16
2018-02-06T12:33:01.155Z,94035.37
2018-02-06T12:35:28.702Z,94029.31
2018-02-06T12:37:56.311Z,94024.00
2018-02-06T12:40:23.866Z,94025.66
2018-02-06T12:42:51.429Z,94027.75
2018-02-06T12:45:19.001Z,94019.81
2018-02-06T12:47:46.558Z,94023.14
2018-02-06T12:50:14.120Z,94021.83
2018-02-06T12:52:41.719Z,94016.13
2018-02-06T12:55:09.263Z,94018.56
2018-02-06T12:57:36.825Z,94015.28
2018-02-06T13:00:04.568Z,94012.47
2018-02-06T13:02:32.117Z,94007.72
2018-02-06T13:04:59.657Z,94014.28
2018-02-06T13:07:27.423Z,94011.55
2018-02-06T13:09:54.977Z,94017.02
2018-02-06T13:12:22.536Z,94011.88
2018-02-06T13:14:50.234Z,94009.33
2018-02-06T13:17:17.819Z,94006.50
2018-02-06T13:19:45.370Z,94001.80
2018-02-06T13:22:12.957Z,94002.81
2018-02-06T13:24:40.502Z,94003.50
2018-02-06T13:27:08.054Z,94005.48
2018-02-06T13:29:35.650Z,94007.81
2018-02-06T13:32:03.213Z,94003.93
2018-02-06T13:34:31.391Z,94006.60
2018-02-06T13:36:59.135Z,93995.00
2018-02-06T13:39:28.814Z,94001.24
2018-02-06T13:41:56.388Z,93996.75
2018-02-06T13:44:24.485Z,93996.89
2018-02-06T13:46:52.044Z,93995.13
2018-02-06T13:49:19.602Z,93996.02
2018-02-06T13:51:47.302Z,93992.59
2018-02-06T13:54:14.845Z,93999.25
2018-02-06T13:56:42.392Z,93999.67
2018-02-06T13:59:09.978Z,94000.78
2018-02-06T14:01:37.542Z,93994.61
2018-02-06T14:04:05.126Z,93995.32
2018-02-06T14:06:32.862Z,93997.31
2018-02-06T14:09:00.413Z,94000.91
2018-02-06T14:11:27.985Z,93997.64
2018-02-06T14:13:55.569Z,93999.89
2018-02-06T14:16:23.141Z,94000.17
2018-02-06T14:18:50.731Z,93993.84
2018-02-06T14:21:18.342Z,93987.55
2018-02-06T14:23:45.895Z,93990.31
2018-02-06T14:26:13.451Z,93989.86
2018-02-06T14:28:41.141Z,93995.45
2018-02-06T14:31:08.702Z,93991.85
2018-02-06T14:33:36.325Z,93997.95
2018-02-06T14:36:03.908Z,94000.22
2018-02-06T14:38:31.490Z,93995.92
2018-02-06T14:40:59.109Z,93986.05
2018-02-06T14:43:26.711Z,93981.73
2018-02-06T14:45:54.318Z,93978.45
2018-02-06T14:48:21.888Z,93975.71
2018-02-06T14:50:49.591Z,93980.32
2018-02-06T14:53:17.168Z,93987.13
2018-02-06T14:55:44.726Z,93993.06
2018-02-06T14:58:12.317Z,93992.04
2018-02-06T15:00:39.916Z,93993.88
2018-02-06T15:03:07.480Z,93984.11
2018-02-06T15:05:35.552Z,93989.14
2018-02-06T15:08:03.118Z,93988.73
2018-02-06T15:10:30.671Z,93986.56
2018-02-06T15:12:58.248Z,93987.28
2018-02-06T15:15:26.308Z,94000.26
2018-02-06T15:17:53.871Z,94002.63
2018-02-06T15:20:21.750Z,93997.41
2018-02-06T15:22:49.325Z,93998.04
2018-02-06T15:25:16.920Z,94005.58
2018-02-06T15:27:44.485Z,94004.93
2018-02-06T15:30:12.130Z,94010.39
2018-02-06T15:32:39.694Z,94004.31
2018-02-06T15:35:07.406Z,94009.39
2018-02-06T15:37:34.964Z,94011.95
2018-02-06T15:40:02.576Z,94007.72
2018-02-06T15:42:30.315Z,94007.20
2018-02-06T15:44:57.911Z,94010.92
2018-02-06T15:47:25.492Z,94016.30
2018-02-06T15:49:53.238Z,94014.12
2018-02-06T15:52:20.798Z,94017.29
2018-02-06T15:54:48.376Z,94028.59
2018-02-06T15:57:15.957Z,94031.22
2018-02-06T15:59:43.537Z,94036.73
2018-02-06T16:02:11.182Z,94032.64
2018-02-06T16:04:38.738Z,94025.91
2018-02-06T16:07:06.295Z,94023.92
2018-02-06T16:09:34.160Z,94025.63
2018-02-06T16:12:01.789Z,94017.37
2018-02-06T16:14:29.349Z,94017.39
2018-02-06T16:16:57.064Z,94022.39
2018-02-06T16:19:24.617Z,94029.52
2018-02-06T16:21:52.185Z,94031.57
2018-02-06T16:24:19.871Z,94030.20
2018-02-06T16:26:47.425Z,94031.61
2018-02-06T16:29:14.974Z,94032.30
2018-02-06T16:31:42.707Z,94030.75
2018-02-06T16:34:10.267Z,94032.38
2018-02-06T16:36:37.836Z,94032.42
2018-02-06T16:39:05.622Z,94032.38
2018-02-06T16:41:33.177Z,94034.92
2018-02-06T16:44:00.757Z,94038.23
2018-02-06T16:46:28.704Z,94037.23
2018-02-06T16:48:56.266Z,94043.50
2018-02-06T16:51:23.851Z,94048.80
2018-02-06T16:53:51.459Z,94047.94
2018-02-06T16:56:19.036Z,94043.46
2018-02-06T16:58:46.605Z,94046.11
2018-02-06T17:01:14.242Z,94043.66
2018-02-06T17:03:41.810Z,94054.66
2018-02-06T17:06:09.360Z,94049.16
2018-02-06T17:08:37.884Z,94052.93
2018-02-06T17:11:05.463Z,94057.55
2018-02-06T17:13:33.024Z,94058.67
2018-02-06T17:16:00.766Z,94059.50
2018-02-06T17:18:28.327Z,94061.19
2018-02-06T17:20:56.016Z,94062.84
2018-02-06T17:23:23.627Z,94060.91
2018-02-06T17:25:51.217Z,94057.83
2018-02-06T17:28:18.765Z,94051.13
2018-02-06T17:30:46.530Z,94065.91
2018-02-06T17:33:14.080Z,94055.34
2018-02-06T17:35:41.650Z,94062.90
2018-02-06T17:38:09.384Z,94068.70
2018-02-06T17:40:36.959Z,94069.05
2018-02-06T17:43:04.514Z,94065.75
2018-02-06T17:45:32.526Z,94069.13
2018-02-06T17:48:00.090Z,94068.70
2018-02-06T17:50:27.638Z,94073.64
2018-02-06T17:52:55.559Z,94075.72
2018-02-06T17:55:23.129Z,94074.02
2018-02-06T17:57:50.677Z,94076.83
2018-02-06T18:00:18.419Z,94071.88
2018-02-06T18:02:46.008Z,94074.78
2018-02-06T18:05:13.578Z,94070.41
2018-02-06T18:07:41.250Z,94072.94
2018-02-06T18:10:08.920Z,94076.27
2018-02-06T18:12:36.516Z,94075.06
2018-02-06T18:15:04.344Z,94075.48
2018-02-06T18:17:31.904Z,94078.36
2018-02-06T18:19:59.472Z,94081.25
2018-02-06T18:22:27.077Z,94076.73
2018-02-06T18:24:54.626Z,94074.26
2018-02-06T18:27:24.180Z,94082.48
2018-02-06T18:29:52.066Z,94083.74
2018-02-06T18:32:20.372Z,94082.09
2018-02-06T18:34:47.929Z,94085.39
2018-02-06T18:37:15.666Z,94084.17
2018-02-06T18:39:43.277Z,94085.41
2018-02-06T18:42:10.851Z,94091.59
2018-02-06T18:44:38.444Z,94079.20
2018-02-06T18:47:06.041Z,94085.81
2018-02-06T18:49:34.964Z,94084.97
2018-02-06T18:52:02.657Z,94086.22
2018-02-06T18:54:30.244Z,94093.61
2018-02-06T18:56:57.879Z,94098.50
2018-02-06T18:59:26.154Z,94104.27
2018-02-06T19:01:53.722Z,94107.52
2018-02-06T19:04:22.065Z,94102.55
2018-02-06T19:06:49.674Z,94114.56
2018-02-06T19:09:17.254Z,94109.17
2018-02-06T19:11:44.868Z,94109.56
2018-02-06T19:14:12.516Z,94110.78
2018-02-06T19:16:40.075Z,94113.64
2018-02-06T19:19:07.690Z,94120.73
2018-02-06T19:21:35.436Z,94122.75
2018-02-06T19:24:03.013Z,94126.88
2018-02-06T19:26:30.590Z,94133.95
2018-02-06T19:28:58.492Z,94142.36
2018-02-06T19:31:26.064Z,94147.72
2018-02-06T19:33:53.645Z,94146.49
2018-02-06T19:36:21.613Z,94158.44
2018-02-06T19:38:49.220Z,94160.47
2018-02-06T19:41:16.788Z,94163.36
2018-02-06T19:43:44.439Z,94161.70
2018-02-06T19:46:12.046Z,94158.81
2018-02-06T19:48:39.632Z,94167.48
2018-02-06T19:51:07.669Z,94162.97
2018-02-06T19:53:35.245Z,94165.89
2018-02-06T19:56:02.836Z,94172.44
2018-02-06T19:58:30.568Z,94176.58
2018-02-06T20:00:58.138Z,94182.38
2018-02-06T20:03:25.766Z,94184.42
2018-02-06T20:05:53.454Z,94180.75
2018-02-06T20:08:21.016Z,94184.86
2018-02-06T20:10:48.566Z,94188.08
2018-02-06T20:13:16.166Z,94188.47
2018-02-06T20:15:43.764Z,94203.74
2018-02-06T20:18:13.282Z,94209.09
2018-02-06T20:20:41.009Z,94205.70
2018-02-06T20:23:08.612Z,94207.70
2018-02-06T20:25:36.171Z,94212.66
2018-02-06T20:28:03.841Z,94208.11
2018-02-06T20:30:31.405Z,94214.27
2018-02-06T20:32:58.987Z,94219.28
2018-02-06T20:35:26.565Z,94213.18
2018-02-06T20:37:54.128Z,94206.08
2018-02-06T20:40:21.687Z,94206.38
2018-02-06T20:42:49.404Z,94210.09
2018-02-06T20:45:16.985Z,94211.26
2018-02-06T20:47:45.158Z,94205.12
2018-02-06T20:50:12.752Z,94207.22
2018-02-06T20:52:40.504Z,94200.09
2018-02-06T20:55:08.077Z,94211.56
2018-02-06T20:57:35.636Z,94215.15
2018-02-06T21:00:03.285Z,94218.88
2018-02-06T21:02:31.043Z,94218.03
2018-02-06T21:04:58.597Z,94220.91
2018-02-06T21:07:26.171Z,94217.23
2018-02-06T21:09:53.815Z,94221.81
2018-02-06T21:12:21.391Z,94223.60
2018-02-06T21:14:48.968Z,94220.03
2018-02-06T21:17:16.656Z,94226.67
2018-02-06T21:19:44.217Z,94229.95
2018-02-06T21:22:11.794Z,94230.84
2018-02-06T21:24:39.391Z,94228.83
2018-02-06T21:27:06.955Z,94228.84
2018-02-06T21:29:34.580Z,94226.79
2018-02-06T21:32:02.317Z,94221.39
2018-02-06T21:34:29.870Z,94224.30
2018-02-06T21:36:57.421Z,94225.61
2018-02-06T21:39:25.021Z,94232.18
2018-02-06T21:41:53.551Z,94222.76
2018-02-06T21:44:21.108Z,94217.03
2018-02-06T21:46:48.858Z,94222.84
2018-02-06T21:49:16.434Z,94228.48
2018-02-06T21:51:44.010Z,94224.39
2018-02-06T21:54:11.903Z,94226.01
2018-02-06T21:56:39.470Z,94225.10
2018-02-06T21:59:07.076Z,94227.58
2018-02-06T22:01:34.686Z,94226.73
2018-02-06T22:04:02.230Z,94221.69
2018-02-06T22:06:29.786Z,94218.77
2018-02-06T22:08:57.381Z,94224.98
2018-02-06T22:11:24.931Z,94222.58
2018-02-06T22:13:52.476Z,94219.72
2018-02-06T22:16:20.393Z,94217.23
2018-02-06T22:18:47.943Z,94213.16
2018-02-06T22:21:15.501Z,94215.90
2018-02-06T22:23:43.235Z,94216.73
2018-02-06T22:26:10.797Z,94211.43
2018-02-06T22:28:38.352Z,94204.47
2018-02-06T22:31:06.100Z,94202.84
2018-02-06T22:33:33.645Z,94203.17
2018-02-06T22:36:01.204Z,94201.13
2018-02-06T22:38:28.944Z,94203.98
2018-02-06T22:40:56.506Z,94206.47
2018-02-06T22:43:24.047Z,94207.36
2018-02-06T22:45:51.642Z,94209.45
2018-02-06T22:48:19.196Z,94209.45
2018-02-06T22:50:46.755Z,94190.57
2018-02-06T22:53:14.356Z,94190.56
2018-02-06T22:55:41.898Z,94201.23
2018-02-06T22:58:09.456Z,94197.93
2018-02-06T23:00:37.266Z,94194.56
2018-02-06T23:03:04.808Z,94184.78
2018-02-06T23:05:32.356Z,94187.18
2018-02-06T23:07:59.952Z,94181.48
2018-02-06T23:10:27.499Z,94180.30
2018-02-06T23:12:55.059Z,94182.77
2018-02-06T23:15:22.676Z,94174.43
2018-02-06T23:17:50.225Z,94172.28
2018-02-06T23:20:17.786Z,94168.19
2018-02-06T23:22:45.520Z,94175.52
2018-02-06T23:25:13.074Z,94169.66
2018-02-06T23:27:40.625Z,94169.55
2018-02-06T23:30:08.231Z,94167.19
2018-02-06T23:32:35.789Z,94171.72
2018-02-06T23:35:03.341Z,94171.69
2018-02-06T23:37:31.213Z,94183.98
2018-02-06T23:39:58.767Z,94176.48
2018-02-06T23:42:26.332Z,94173.52
2018-02-06T23:44:54.078Z,94173.52
2018-02-06T23:47:21.621Z,94168.30
2018-02-06T23:49:49.167Z,94166.66
2018-02-06T23:52:16.905Z,94168.30
2018-02-06T23:54:44.470Z,94173.21
2018-02-06T23:57:12.022Z,94168.37
2018-02-06T23:59:40.962Z,94168.41
